sensor_id;sensor_type;location;lat;lon;timestamp;P1;durP1;ratioP1;P2;durP2;ratioP2
25155;SDS011;21913;52.456;13.634;2023-06-24T00:02:59;4.82;;;3.10;;
25155;SDS011;21913;52.456;13.634;2023-06-24T00:08:00;3.40;;;2.90;;
25155;SDS011;21913;52.456;13.634;2023-06-24T00:13:02;3.38;;;2.75;;
25155;SDS011;21913;52.456;13.634;2023-06-24T00:18:03;4.13;;;3.00;;
25155;SDS011;21913;52.456;13.634;2023-06-24T00:23:05;3.67;;;3.00;;
25155;SDS011;21913;52.456;13.634;2023-06-24T00:28:07;4.07;;;3.17;;
25155;SDS011;21913;52.456;13.634;2023-06-24T00:33:08;5.28;;;2.90;;
25155;SDS011;21913;52.456;13.634;2023-06-24T00:38:10;4.43;;;3.10;;
25155;SDS011;21913;52.456;13.634;2023-06-24T00:43:11;7.18;;;3.10;;
25155;SDS011;21913;52.456;13.634;2023-06-24T00:48:13;3.35;;;2.75;;
25155;SDS011;21913;52.456;13.634;2023-06-24T00:53:18;3.17;;;2.60;;
25155;SDS011;21913;52.456;13.634;2023-06-24T00:58:20;5.70;;;3.25;;
25155;SDS011;21913;52.456;13.634;2023-06-24T01:03:22;4.30;;;3.25;;
25155;SDS011;21913;52.456;13.634;2023-06-24T01:08:25;4.63;;;2.70;;
25155;SDS011;21913;52.456;13.634;2023-06-24T01:13:27;5.03;;;3.00;;
25155;SDS011;21913;52.456;13.634;2023-06-24T01:29:08;4.00;;;2.90;;
25155;SDS011;21913;52.456;13.634;2023-06-24T01:34:28;3.92;;;3.10;;
25155;SDS011;21913;52.456;13.634;2023-06-24T01:39:31;3.55;;;2.90;;
25155;SDS011;21913;52.456;13.634;2023-06-24T01:44:39;3.33;;;2.70;;
25155;SDS011;21913;52.456;13.634;2023-06-24T01:49:44;4.50;;;2.95;;
25155;SDS011;21913;52.456;13.634;2023-06-24T01:54:46;3.65;;;3.00;;
25155;SDS011;21913;52.456;13.634;2023-06-24T01:59:49;4.68;;;2.95;;
25155;SDS011;21913;52.456;13.634;2023-06-24T02:04:54;4.10;;;2.80;;
25155;SDS011;21913;52.456;13.634;2023-06-24T02:09:57;4.05;;;2.90;;
25155;SDS011;21913;52.456;13.634;2023-06-24T02:15:01;3.40;;;2.70;;
25155;SDS011;21913;52.456;13.634;2023-06-24T02:20:03;3.78;;;2.70;;
25155;SDS011;21913;52.456;13.634;2023-06-24T02:25:08;3.42;;;2.63;;
25155;SDS011;21913;52.456;13.634;2023-06-24T02:30:10;3.08;;;2.70;;
25155;SDS011;21913;52.456;13.634;2023-06-24T02:35:12;3.15;;;2.67;;
25155;SDS011;21913;52.456;13.634;2023-06-24T02:40:14;3.35;;;2.65;;
25155;SDS011;21913;52.456;13.634;2023-06-24T02:45:17;2.95;;;2.65;;
25155;SDS011;21913;52.456;13.634;2023-06-24T02:50:19;3.67;;;2.85;;
25155;SDS011;21913;52.456;13.634;2023-06-24T02:55:24;3.10;;;2.80;;
25155;SDS011;21913;52.456;13.634;2023-06-24T03:00:33;4.57;;;2.87;;
25155;SDS011;21913;52.456;13.634;2023-06-24T03:05:58;4.05;;;2.53;;
25155;SDS011;21913;52.456;13.634;2023-06-24T03:11:03;3.63;;;2.92;;
25155;SDS011;21913;52.456;13.634;2023-06-24T03:16:08;3.30;;;2.97;;
25155;SDS011;21913;52.456;13.634;2023-06-24T03:21:15;3.47;;;2.88;;
25155;SDS011;21913;52.456;13.634;2023-06-24T03:26:18;4.15;;;2.83;;
25155;SDS011;21913;52.456;13.634;2023-06-24T03:31:20;4.85;;;2.88;;
25155;SDS011;21913;52.456;13.634;2023-06-24T03:36:22;3.35;;;2.83;;
25155;SDS011;21913;52.456;13.634;2023-06-24T03:41:24;3.47;;;2.85;;
25155;SDS011;21913;52.456;13.634;2023-06-24T03:46:26;2.90;;;2.65;;
25155;SDS011;21913;52.456;13.634;2023-06-24T03:51:28;4.13;;;3.00;;
25155;SDS011;21913;52.456;13.634;2023-06-24T03:56:29;3.45;;;2.90;;
25155;SDS011;21913;52.456;13.634;2023-06-24T04:01:31;4.35;;;3.08;;
25155;SDS011;21913;52.456;13.634;2023-06-24T04:06:33;3.08;;;2.75;;
25155;SDS011;21913;52.456;13.634;2023-06-24T04:11:34;3.55;;;2.60;;
25155;SDS011;21913;52.456;13.634;2023-06-24T04:16:36;4.07;;;3.00;;
25155;SDS011;21913;52.456;13.634;2023-06-24T04:21:37;3.40;;;3.00;;
25155;SDS011;21913;52.456;13.634;2023-06-24T04:26:39;3.22;;;2.70;;
25155;SDS011;21913;52.456;13.634;2023-06-24T04:31:41;3.20;;;2.80;;
25155;SDS011;21913;52.456;13.634;2023-06-24T04:36:43;3.65;;;2.72;;
25155;SDS011;21913;52.456;13.634;2023-06-24T04:41:44;3.40;;;2.88;;
25155;SDS011;21913;52.456;13.634;2023-06-24T04:46:46;3.78;;;2.83;;
25155;SDS011;21913;52.456;13.634;2023-06-24T04:51:47;3.60;;;2.70;;
25155;SDS011;21913;52.456;13.634;2023-06-24T04:56:49;3.10;;;2.75;;
25155;SDS011;21913;52.456;13.634;2023-06-24T05:01:51;3.72;;;2.75;;
25155;SDS011;21913;52.456;13.634;2023-06-24T05:06:52;3.88;;;2.70;;
25155;SDS011;21913;52.456;13.634;2023-06-24T05:11:54;3.55;;;2.60;;
25155;SDS011;21913;52.456;13.634;2023-06-24T05:16:55;3.85;;;2.70;;
25155;SDS011;21913;52.456;13.634;2023-06-24T05:21:57;3.10;;;2.58;;
25155;SDS011;21913;52.456;13.634;2023-06-24T05:27:03;3.40;;;2.70;;
25155;SDS011;21913;52.456;13.634;2023-06-24T05:32:05;3.47;;;2.83;;
25155;SDS011;21913;52.456;13.634;2023-06-24T05:37:07;3.38;;;2.78;;
25155;SDS011;21913;52.456;13.634;2023-06-24T05:42:09;3.05;;;2.60;;
25155;SDS011;21913;52.456;13.634;2023-06-24T05:47:10;3.05;;;2.75;;
25155;SDS011;21913;52.456;13.634;2023-06-24T05:52:12;3.53;;;2.92;;
25155;SDS011;21913;52.456;13.634;2023-06-24T05:57:13;3.47;;;2.80;;
25155;SDS011;21913;52.456;13.634;2023-06-24T06:02:15;3.03;;;2.50;;
25155;SDS011;21913;52.456;13.634;2023-06-24T06:07:17;3.72;;;2.78;;
25155;SDS011;21913;52.456;13.634;2023-06-24T06:12:18;2.90;;;2.60;;
25155;SDS011;21913;52.456;13.634;2023-06-24T06:17:20;3.70;;;2.60;;
25155;SDS011;21913;52.456;13.634;2023-06-24T06:22:21;3.42;;;2.92;;
25155;SDS011;21913;52.456;13.634;2023-06-24T06:27:23;3.28;;;2.63;;
25155;SDS011;21913;52.456;13.634;2023-06-24T06:32:24;3.42;;;2.70;;
25155;SDS011;21913;52.456;13.634;2023-06-24T06:37:26;2.83;;;2.38;;
25155;SDS011;21913;52.456;13.634;2023-06-24T06:42:28;3.30;;;2.80;;
25155;SDS011;21913;52.456;13.634;2023-06-24T06:47:31;4.03;;;2.63;;
25155;SDS011;21913;52.456;13.634;2023-06-24T06:52:32;3.05;;;2.55;;
25155;SDS011;21913;52.456;13.634;2023-06-24T06:57:34;5.10;;;2.60;;
25155;SDS011;21913;52.456;13.634;2023-06-24T07:02:35;2.80;;;2.50;;
25155;SDS011;21913;52.456;13.634;2023-06-24T07:07:37;2.75;;;2.50;;
25155;SDS011;21913;52.456;13.634;2023-06-24T07:12:39;4.07;;;2.58;;
25155;SDS011;21913;52.456;13.634;2023-06-24T07:17:41;4.60;;;2.55;;
25155;SDS011;21913;52.456;13.634;2023-06-24T07:22:42;2.53;;;2.33;;
25155;SDS011;21913;52.456;13.634;2023-06-24T07:27:44;2.50;;;2.30;;
25155;SDS011;21913;52.456;13.634;2023-06-24T07:32:45;4.05;;;2.55;;
25155;SDS011;21913;52.456;13.634;2023-06-24T07:37:47;5.50;;;3.28;;
25155;SDS011;21913;52.456;13.634;2023-06-24T07:42:49;5.18;;;3.40;;
25155;SDS011;21913;52.456;13.634;2023-06-24T07:47:51;5.90;;;3.60;;
25155;SDS011;21913;52.456;13.634;2023-06-24T07:52:54;5.15;;;3.50;;
25155;SDS011;21913;52.456;13.634;2023-06-24T07:57:56;9.05;;;5.65;;
25155;SDS011;21913;52.456;13.634;2023-06-24T08:02:57;9.48;;;5.28;;
25155;SDS011;21913;52.456;13.634;2023-06-24T08:07:59;8.77;;;5.47;;
25155;SDS011;21913;52.456;13.634;2023-06-24T08:13:00;6.63;;;5.13;;
25155;SDS011;21913;52.456;13.634;2023-06-24T08:18:02;6.88;;;5.00;;
25155;SDS011;21913;52.456;13.634;2023-06-24T08:23:04;5.57;;;4.68;;
25155;SDS011;21913;52.456;13.634;2023-06-24T08:28:05;6.70;;;4.45;;
25155;SDS011;21913;52.456;13.634;2023-06-24T08:33:07;7.50;;;4.75;;
25155;SDS011;21913;52.456;13.634;2023-06-24T08:38:11;9.00;;;6.28;;
25155;SDS011;21913;52.456;13.634;2023-06-24T08:43:13;12.38;;;7.90;;
25155;SDS011;21913;52.456;13.634;2023-06-24T08:48:14;12.35;;;7.63;;
25155;SDS011;21913;52.456;13.634;2023-06-24T08:53:16;11.85;;;7.53;;
25155;SDS011;21913;52.456;13.634;2023-06-24T08:58:19;10.95;;;7.65;;
25155;SDS011;21913;52.456;13.634;2023-06-24T09:03:21;13.30;;;7.20;;
25155;SDS011;21913;52.456;13.634;2023-06-24T09:08:23;9.60;;;6.55;;
25155;SDS011;21913;52.456;13.634;2023-06-24T09:13:33;10.35;;;6.72;;
25155;SDS011;21913;52.456;13.634;2023-06-24T09:18:35;9.07;;;6.35;;
25155;SDS011;21913;52.456;13.634;2023-06-24T09:23:37;9.50;;;6.78;;
25155;SDS011;21913;52.456;13.634;2023-06-24T09:28:39;11.48;;;6.38;;
25155;SDS011;21913;52.456;13.634;2023-06-24T09:33:41;7.70;;;6.07;;
25155;SDS011;21913;52.456;13.634;2023-06-24T09:38:43;10.35;;;5.90;;
25155;SDS011;21913;52.456;13.634;2023-06-24T09:43:45;7.50;;;5.97;;
25155;SDS011;21913;52.456;13.634;2023-06-24T09:48:46;7.32;;;5.85;;
25155;SDS011;21913;52.456;13.634;2023-06-24T09:53:48;8.75;;;5.80;;
25155;SDS011;21913;52.456;13.634;2023-06-24T09:58:53;8.18;;;6.03;;
25155;SDS011;21913;52.456;13.634;2023-06-24T10:03:55;9.85;;;5.72;;
25155;SDS011;21913;52.456;13.634;2023-06-24T10:08:56;9.43;;;5.57;;
25155;SDS011;21913;52.456;13.634;2023-06-24T10:13:59;8.02;;;5.90;;
25155;SDS011;21913;52.456;13.634;2023-06-24T10:19:01;6.18;;;5.25;;
25155;SDS011;21913;52.456;13.634;2023-06-24T10:24:04;7.50;;;5.30;;
25155;SDS011;21913;52.456;13.634;2023-06-24T10:34:24;5.90;;;4.93;;
25155;SDS011;21913;52.456;13.634;2023-06-24T10:44:50;8.07;;;5.18;;
25155;SDS011;21913;52.456;13.634;2023-06-24T10:49:52;5.95;;;5.10;;
25155;SDS011;21913;52.456;13.634;2023-06-24T10:54:54;6.85;;;4.80;;
25155;SDS011;21913;52.456;13.634;2023-06-24T10:59:57;6.40;;;4.90;;
25155;SDS011;21913;52.456;13.634;2023-06-24T11:04:59;7.72;;;4.82;;
25155;SDS011;21913;52.456;13.634;2023-06-24T11:10:06;6.05;;;4.47;;
25155;SDS011;21913;52.456;13.634;2023-06-24T11:15:15;7.32;;;5.25;;
25155;SDS011;21913;52.456;13.634;2023-06-24T11:20:17;6.10;;;4.60;;
25155;SDS011;21913;52.456;13.634;2023-06-24T11:25:19;6.70;;;4.80;;
25155;SDS011;21913;52.456;13.634;2023-06-24T11:30:22;5.80;;;4.93;;
25155;SDS011;21913;52.456;13.634;2023-06-24T11:35:23;6.35;;;4.70;;
25155;SDS011;21913;52.456;13.634;2023-06-24T11:40:25;6.93;;;4.90;;
25155;SDS011;21913;52.456;13.634;2023-06-24T11:45:26;5.93;;;4.60;;
25155;SDS011;21913;52.456;13.634;2023-06-24T11:50:28;6.28;;;5.00;;
25155;SDS011;21913;52.456;13.634;2023-06-24T11:55:30;5.65;;;4.45;;
25155;SDS011;21913;52.456;13.634;2023-06-24T12:00:37;5.93;;;4.68;;
25155;SDS011;21913;52.456;13.634;2023-06-24T12:05:40;5.53;;;4.75;;
25155;SDS011;21913;52.456;13.634;2023-06-24T12:10:42;6.03;;;4.57;;
25155;SDS011;21913;52.456;13.634;2023-06-24T12:15:44;5.15;;;4.53;;
25155;SDS011;21913;52.456;13.634;2023-06-24T12:20:46;6.47;;;4.68;;
25155;SDS011;21913;52.456;13.634;2023-06-24T12:25:48;5.82;;;4.30;;
25155;SDS011;21913;52.456;13.634;2023-06-24T12:30:49;6.00;;;4.60;;
25155;SDS011;21913;52.456;13.634;2023-06-24T12:35:51;5.80;;;4.60;;
25155;SDS011;21913;52.456;13.634;2023-06-24T12:40:52;5.63;;;4.30;;
25155;SDS011;21913;52.456;13.634;2023-06-24T12:45:54;5.68;;;4.38;;
25155;SDS011;21913;52.456;13.634;2023-06-24T12:50:55;5.03;;;4.53;;
25155;SDS011;21913;52.456;13.634;2023-06-24T12:55:57;5.75;;;4.53;;
25155;SDS011;21913;52.456;13.634;2023-06-24T13:00:58;6.43;;;4.15;;
25155;SDS011;21913;52.456;13.634;2023-06-24T13:06:00;6.65;;;4.25;;
25155;SDS011;21913;52.456;13.634;2023-06-24T13:11:01;6.22;;;4.72;;
25155;SDS011;21913;52.456;13.634;2023-06-24T13:16:03;5.90;;;4.35;;
25155;SDS011;21913;52.456;13.634;2023-06-24T13:21:05;5.10;;;4.22;;
25155;SDS011;21913;52.456;13.634;2023-06-24T13:26:15;5.88;;;4.28;;
25155;SDS011;21913;52.456;13.634;2023-06-24T13:31:16;4.80;;;4.05;;
25155;SDS011;21913;52.456;13.634;2023-06-24T13:36:31;5.88;;;4.20;;
25155;SDS011;21913;52.456;13.634;2023-06-24T13:41:33;5.18;;;4.13;;
25155;SDS011;21913;52.456;13.634;2023-06-24T13:46:35;5.85;;;4.32;;
25155;SDS011;21913;52.456;13.634;2023-06-24T13:51:37;5.90;;;4.47;;
25155;SDS011;21913;52.456;13.634;2023-06-24T13:56:40;5.30;;;4.25;;
25155;SDS011;21913;52.456;13.634;2023-06-24T14:01:41;4.65;;;4.15;;
25155;SDS011;21913;52.456;13.634;2023-06-24T14:06:43;5.57;;;4.28;;
25155;SDS011;21913;52.456;13.634;2023-06-24T14:11:44;4.93;;;4.07;;
25155;SDS011;21913;52.456;13.634;2023-06-24T14:16:46;5.75;;;4.28;;
25155;SDS011;21913;52.456;13.634;2023-06-24T14:21:48;4.38;;;3.97;;
25155;SDS011;21913;52.456;13.634;2023-06-24T14:26:49;5.78;;;3.97;;
25155;SDS011;21913;52.456;13.634;2023-06-24T14:31:51;4.93;;;4.05;;
25155;SDS011;21913;52.456;13.634;2023-06-24T14:36:53;5.65;;;4.60;;
25155;SDS011;21913;52.456;13.634;2023-06-24T14:41:54;5.63;;;4.28;;
25155;SDS011;21913;52.456;13.634;2023-06-24T14:46:56;5.13;;;4.40;;
25155;SDS011;21913;52.456;13.634;2023-06-24T14:51:57;5.53;;;4.43;;
25155;SDS011;21913;52.456;13.634;2023-06-24T14:56:59;6.47;;;4.45;;
25155;SDS011;21913;52.456;13.634;2023-06-24T15:02:00;7.72;;;4.00;;
25155;SDS011;21913;52.456;13.634;2023-06-24T15:07:02;5.13;;;4.13;;
25155;SDS011;21913;52.456;13.634;2023-06-24T15:12:04;5.75;;;3.92;;
25155;SDS011;21913;52.456;13.634;2023-06-24T15:17:06;5.68;;;4.22;;
25155;SDS011;21913;52.456;13.634;2023-06-24T15:22:07;5.47;;;4.13;;
25155;SDS011;21913;52.456;13.634;2023-06-24T15:27:09;5.00;;;4.10;;
25155;SDS011;21913;52.456;13.634;2023-06-24T15:32:10;5.70;;;4.32;;
25155;SDS011;21913;52.456;13.634;2023-06-24T15:37:12;5.88;;;3.88;;
25155;SDS011;21913;52.456;13.634;2023-06-24T15:42:13;5.03;;;4.10;;
25155;SDS011;21913;52.456;13.634;2023-06-24T15:47:15;5.25;;;3.80;;
25155;SDS011;21913;52.456;13.634;2023-06-24T15:52:16;5.45;;;4.10;;
25155;SDS011;21913;52.456;13.634;2023-06-24T15:57:18;5.65;;;4.10;;
25155;SDS011;21913;52.456;13.634;2023-06-24T16:02:19;8.02;;;4.13;;
25155;SDS011;21913;52.456;13.634;2023-06-24T16:07:21;4.72;;;3.83;;
25155;SDS011;21913;52.456;13.634;2023-06-24T16:12:22;5.65;;;3.42;;
25155;SDS011;21913;52.456;13.634;2023-06-24T16:17:24;4.93;;;3.83;;
25155;SDS011;21913;52.456;13.634;2023-06-24T16:22:25;4.90;;;3.88;;
25155;SDS011;21913;52.456;13.634;2023-06-24T16:27:27;7.05;;;4.30;;
25155;SDS011;21913;52.456;13.634;2023-06-24T16:32:28;5.45;;;4.13;;
25155;SDS011;21913;52.456;13.634;2023-06-24T16:37:30;6.80;;;4.20;;
25155;SDS011;21913;52.456;13.634;2023-06-24T16:42:32;5.30;;;4.25;;
25155;SDS011;21913;52.456;13.634;2023-06-24T16:47:33;5.13;;;3.88;;
25155;SDS011;21913;52.456;13.634;2023-06-24T16:52:35;6.57;;;4.30;;
25155;SDS011;21913;52.456;13.634;2023-06-24T16:57:36;7.00;;;4.13;;
25155;SDS011;21913;52.456;13.634;2023-06-24T17:02:38;5.63;;;3.95;;
25155;SDS011;21913;52.456;13.634;2023-06-24T17:07:40;7.38;;;4.40;;
25155;SDS011;21913;52.456;13.634;2023-06-24T17:12:42;4.85;;;3.90;;
25155;SDS011;21913;52.456;13.634;2023-06-24T17:17:43;4.55;;;3.72;;
25155;SDS011;21913;52.456;13.634;2023-06-24T17:22:45;6.28;;;4.00;;
25155;SDS011;21913;52.456;13.634;2023-06-24T17:27:47;5.57;;;3.95;;
25155;SDS011;21913;52.456;13.634;2023-06-24T17:32:48;5.07;;;3.88;;
25155;SDS011;21913;52.456;13.634;2023-06-24T17:37:50;4.95;;;3.63;;
25155;SDS011;21913;52.456;13.634;2023-06-24T17:42:51;5.40;;;3.80;;
25155;SDS011;21913;52.456;13.634;2023-06-24T17:47:53;6.47;;;3.80;;
25155;SDS011;21913;52.456;13.634;2023-06-24T17:52:54;5.32;;;4.10;;
25155;SDS011;21913;52.456;13.634;2023-06-24T17:57:56;5.28;;;3.80;;
25155;SDS011;21913;52.456;13.634;2023-06-24T18:02:57;5.82;;;4.00;;
25155;SDS011;21913;52.456;13.634;2023-06-24T18:07:59;5.15;;;4.03;;
25155;SDS011;21913;52.456;13.634;2023-06-24T18:13:00;5.90;;;3.67;;
25155;SDS011;21913;52.456;13.634;2023-06-24T18:18:03;4.50;;;3.50;;
25155;SDS011;21913;52.456;13.634;2023-06-24T18:23:04;4.68;;;3.70;;
25155;SDS011;21913;52.456;13.634;2023-06-24T18:28:06;5.00;;;3.85;;
25155;SDS011;21913;52.456;13.634;2023-06-24T18:33:07;4.85;;;3.85;;
25155;SDS011;21913;52.456;13.634;2023-06-24T18:38:09;4.97;;;3.70;;
25155;SDS011;21913;52.456;13.634;2023-06-24T18:43:11;5.22;;;4.07;;
25155;SDS011;21913;52.456;13.634;2023-06-24T18:48:12;4.57;;;3.83;;
25155;SDS011;21913;52.456;13.634;2023-06-24T18:53:14;4.50;;;3.63;;
25155;SDS011;21913;52.456;13.634;2023-06-24T18:58:15;5.88;;;3.60;;
25155;SDS011;21913;52.456;13.634;2023-06-24T19:03:17;4.25;;;3.45;;
25155;SDS011;21913;52.456;13.634;2023-06-24T19:08:18;4.60;;;3.72;;
25155;SDS011;21913;52.456;13.634;2023-06-24T19:13:20;4.97;;;3.53;;
25155;SDS011;21913;52.456;13.634;2023-06-24T19:18:21;5.05;;;3.63;;
25155;SDS011;21913;52.456;13.634;2023-06-24T19:23:23;5.28;;;3.78;;
25155;SDS011;21913;52.456;13.634;2023-06-24T19:28:25;4.65;;;3.50;;
25155;SDS011;21913;52.456;13.634;2023-06-24T19:33:26;4.38;;;3.42;;
25155;SDS011;21913;52.456;13.634;2023-06-24T19:38:28;4.47;;;3.65;;
25155;SDS011;21913;52.456;13.634;2023-06-24T19:43:30;4.82;;;3.55;;
25155;SDS011;21913;52.456;13.634;2023-06-24T19:48:31;5.13;;;3.45;;
25155;SDS011;21913;52.456;13.634;2023-06-24T19:53:33;4.70;;;3.42;;
25155;SDS011;21913;52.456;13.634;2023-06-24T19:58:35;4.72;;;3.60;;
25155;SDS011;21913;52.456;13.634;2023-06-24T20:03:36;4.15;;;3.08;;
25155;SDS011;21913;52.456;13.634;2023-06-24T20:08:38;4.40;;;3.50;;
25155;SDS011;21913;52.456;13.634;2023-06-24T20:13:39;4.35;;;3.45;;
25155;SDS011;21913;52.456;13.634;2023-06-24T20:18:41;6.25;;;3.50;;
25155;SDS011;21913;52.456;13.634;2023-06-24T20:23:42;6.30;;;3.65;;
25155;SDS011;21913;52.456;13.634;2023-06-24T20:28:44;4.63;;;3.55;;
25155;SDS011;21913;52.456;13.634;2023-06-24T20:33:46;3.80;;;3.00;;
25155;SDS011;21913;52.456;13.634;2023-06-24T20:38:47;4.25;;;3.53;;
25155;SDS011;21913;52.456;13.634;2023-06-24T20:43:49;4.20;;;3.40;;
25155;SDS011;21913;52.456;13.634;2023-06-24T20:48:50;4.75;;;3.75;;
25155;SDS011;21913;52.456;13.634;2023-06-24T20:53:52;5.38;;;3.17;;
25155;SDS011;21913;52.456;13.634;2023-06-24T20:58:54;5.22;;;3.50;;
25155;SDS011;21913;52.456;13.634;2023-06-24T21:03:56;4.38;;;3.10;;
25155;SDS011;21913;52.456;13.634;2023-06-24T21:08:57;4.10;;;3.20;;
25155;SDS011;21913;52.456;13.634;2023-06-24T21:13:59;3.70;;;3.20;;
25155;SDS011;21913;52.456;13.634;2023-06-24T21:19:00;3.95;;;3.22;;
25155;SDS011;21913;52.456;13.634;2023-06-24T21:24:02;4.32;;;3.22;;
25155;SDS011;21913;52.456;13.634;2023-06-24T21:29:03;3.80;;;2.92;;
25155;SDS011;21913;52.456;13.634;2023-06-24T21:34:05;4.60;;;3.13;;
25155;SDS011;21913;52.456;13.634;2023-06-24T21:39:06;3.90;;;2.92;;
25155;SDS011;21913;52.456;13.634;2023-06-24T21:44:08;5.32;;;3.10;;
25155;SDS011;21913;52.456;13.634;2023-06-24T21:49:10;3.95;;;3.20;;
25155;SDS011;21913;52.456;13.634;2023-06-24T21:54:12;3.53;;;3.05;;
25155;SDS011;21913;52.456;13.634;2023-06-24T21:59:13;3.53;;;3.10;;
25155;SDS011;21913;52.456;13.634;2023-06-24T22:04:15;4.43;;;3.40;;
25155;SDS011;21913;52.456;13.634;2023-06-24T22:09:16;4.32;;;3.20;;
25155;SDS011;21913;52.456;13.634;2023-06-24T22:14:18;3.85;;;3.25;;
25155;SDS011;21913;52.456;13.634;2023-06-24T22:19:19;3.92;;;3.22;;
25155;SDS011;21913;52.456;13.634;2023-06-24T22:24:21;4.18;;;2.95;;
25155;SDS011;21913;52.456;13.634;2023-06-24T22:29:22;3.53;;;2.97;;
25155;SDS011;21913;52.456;13.634;2023-06-24T22:34:24;4.25;;;3.28;;
25155;SDS011;21913;52.456;13.634;2023-06-24T22:39:25;3.35;;;2.75;;
25155;SDS011;21913;52.456;13.634;2023-06-24T22:44:27;3.95;;;2.85;;
25155;SDS011;21913;52.456;13.634;2023-06-24T22:49:29;3.72;;;3.00;;
25155;SDS011;21913;52.456;13.634;2023-06-24T22:54:30;4.93;;;2.97;;
25155;SDS011;21913;52.456;13.634;2023-06-24T22:59:32;4.57;;;3.10;;
25155;SDS011;21913;52.456;13.634;2023-06-24T23:04:33;4.15;;;3.10;;
25155;SDS011;21913;52.456;13.634;2023-06-24T23:09:35;3.45;;;2.97;;
25155;SDS011;21913;52.456;13.634;2023-06-24T23:14:37;3.92;;;3.00;;
25155;SDS011;21913;52.456;13.634;2023-06-24T23:19:41;3.78;;;3.10;;
25155;SDS011;21913;52.456;13.634;2023-06-24T23:24:42;3.38;;;2.70;;
25155;SDS011;21913;52.456;13.634;2023-06-24T23:29:44;3.45;;;2.50;;
25155;SDS011;21913;52.456;13.634;2023-06-24T23:34:47;3.67;;;2.72;;
25155;SDS011;21913;52.456;13.634;2023-06-24T23:39:48;3.83;;;2.75;;
25155;SDS011;21913;52.456;13.634;2023-06-24T23:44:50;4.35;;;3.00;;
25155;SDS011;21913;52.456;13.634;2023-06-24T23:49:52;3.25;;;2.85;;
25155;SDS011;21913;52.456;13.634;2023-06-24T23:54:53;3.40;;;2.88;;
25155;SDS011;21913;52.456;13.634;2023-06-24T23:59:55;4.30;;;3.05;;
